This demonstration page uses our WeatherBlox Daily Observations layout. Learn more.

38.88101, -77.10428

Hourly Observations for August 9, 2015

Temp ( °F °C ) Dew Point ( °F °C ) Humidity (%) Winds ( mph kmh ) Pressure ( in mb ) Visibility ( mi km ) Precip ( " mm )
12:52 am 00:52 Partly Cloudy 75 23.9 63 17.2 66 66 S 7 11 29.99 1016 10 16.0934 0 0
1:52 am 01:52 Mostly Cloudy 73 22.8 63 17.2 71 71 S 6 9 30 1016 10 16.0934 0 0
2:52 am 02:52 Mostly Cloudy 73 22.8 63 17.2 71 71 Calm 30 1016 10 16.0934 0 0
3:52 am 03:52 Mostly Cloudy 73 22.8 63 17.2 71 71 SSW 3 6 30 1016 10 16.0934 0 0
4:52 am 04:52 Cloudy 74 23.3 64 17.8 71 71 Calm 29.99 1016 10 16.0934 0 0
5:52 am 05:52 Mostly Cloudy 73 22.8 64 17.8 74 74 Calm 29.99 1016 10 16.0934 0 0
6:52 am 06:52 Mostly Cloudy 74 23.3 63 17.2 69 69 Calm 30 1016 10 16.0934 0 0
7:52 am 07:52 Mostly Cloudy 75 23.9 64 17.8 69 69 S 5 7 30.01 1016 10 16.0934 0 0
8:52 am 08:52 Mostly Cloudy 77 25 63 17.2 62 62 SSW 5 7 30.02 1017 10 16.0934 0 0
9:52 am 09:52 Mostly Cloudy 79 26.1 63 17.2 58 58 SSE 5 7 30.02 1017 10 16.0934 0 0
10:52 am 10:52 Mostly Cloudy 83 28.3 62 16.7 49 49 S 9 15 30.01 1016 10 16.0934 0 0
11:52 am 11:52 Partly Cloudy 84 28.9 61 16.1 46 46 S 10 17 29.99 1016 10 16.0934 0 0
12:52 pm 12:52 Mostly Cloudy 84 28.9 64 17.8 51 51 S 8 13 30 1016 10 16.0934 0 0
1:52 pm 13:52 Sunny 88 31.1 65 18.3 46 46 S 10 17 29.99 1016 10 16.0934 0 0
2:52 pm 14:52 Mostly Cloudy 86 30 64 17.8 48 48 S 10 17 30 1016 10 16.0934 0 0
3:52 pm 15:52 Mostly Cloudy 88 31.1 65 18.3 46 46 S 12 19 29.98 1015 10 16.0934 0 0
4:52 pm 16:52 Mostly Cloudy 88 31.1 65 18.3 46 46 SSE 10 17 29.98 1015 10 16.0934 0 0
5:52 pm 17:52 Mostly Cloudy 86 30 65 18.3 49 49 S 10 17 29.97 1015 10 16.0934 0 0
6:52 pm 18:52 Mostly Cloudy 85 29.4 65 18.3 51 51 S 10 17 29.97 1015 10 16.0934 0 0
7:52 pm 19:52 Mostly Cloudy 84 28.9 66 18.9 55 55 S 12 19 29.98 1015 10 16.0934 0 0
8:52 pm 20:52 Cloudy 83 28.3 65 18.3 55 55 S 10 17 29.98 1015 10 16.0934 0 0
9:52 pm 21:52 Cloudy 81 27.2 66 18.9 61 61 S 10 17 30 1016 10 16.0934 0 0
10:52 pm 22:52 Cloudy 81 27.2 67 19.4 62 62 S 9 15 30.01 1016 10 16.0934 0 0
11:52 pm 23:52 Cloudy 80 26.7 66 18.9 62 62 S 12 19 30.01 1016 10 16.0934 0 0

Powered by AerisWeather